Time;durP1;ratioP1;P1;durP2;ratioP2;P2;SDS_P1;SDS_P2;PMS_P1;PMS_P2;Temp;Humidity;BMP_temperature;BMP_pressure;BME280_temperature;BME280_humidity;BME280_pressure;Samples;Min_cycle;Max_cycle;Signal;HPM_P1;HPM_P2
2023/06/30 00:00:12;;;;;;;7.80;5.13;;;;;;;17.94;82.77;99768.56;4993009;28;20231;-64
2023/06/30 00:02:40;;;;;;;6.73;4.50;;;;;;;17.92;82.85;99770.72;4994611;28;20558;-64
2023/06/30 00:05:08;;;;;;;7.77;4.83;;;;;;;17.84;83.11;99760.81;4994975;28;20235;-65
2023/06/30 00:07:36;;;;;;;8.27;5.00;;;;;;;17.87;83.06;99765.88;4993733;28;20231;-65
2023/06/30 00:10:03;;;;;;;7.00;4.23;;;;;;;17.72;83.40;99766.06;4994976;28;20238;-65
2023/06/30 00:12:30;;;;;;;8.30;4.83;;;;;;;17.76;83.57;99773.88;4990239;28;20227;-65
2023/06/30 00:14:57;;;;;;;6.80;4.53;;;;;;;17.68;83.95;99763.97;4994543;28;20289;-64
2023/06/30 00:17:23;;;;;;;6.77;4.90;;;;;;;17.81;83.63;99763.97;4993598;28;20282;-64
2023/06/30 00:19:50;;;;;;;6.87;4.90;;;;;;;17.81;82.93;99769.44;4993634;28;20226;-64
2023/06/30 00:22:20;;;;;;;7.57;5.20;;;;;;;17.77;83.19;99765.44;4993821;28;20246;-65
2023/06/30 00:24:49;;;;;;;8.37;4.57;;;;;;;17.62;83.47;99765.66;4993564;28;20243;-65
2023/06/30 00:27:15;;;;;;;7.27;5.10;;;;;;;17.50;83.78;99764.59;4986127;28;20236;-65
2023/06/30 00:29:42;;;;;;;9.90;5.13;;;;;;;17.35;84.62;99762.91;4994195;28;20363;-64
2023/06/30 00:32:08;;;;;;;6.73;4.80;;;;;;;17.24;85.30;99764.34;4993934;28;20326;-65
2023/06/30 00:34:35;;;;;;;8.03;4.33;;;;;;;17.22;85.32;99771.09;4993082;28;20253;-66
2023/06/30 00:37:02;;;;;;;7.47;5.13;;;;;;;17.11;85.86;99764.34;4993456;28;20550;-64
2023/06/30 00:39:28;;;;;;;7.43;5.80;;;;;;;17.03;86.22;99759.88;4992540;28;20579;-66
2023/06/30 00:41:55;;;;;;;10.10;5.93;;;;;;;16.90;87.26;99754.34;4993098;28;20231;-64
2023/06/30 00:44:21;;;;;;;7.93;5.63;;;;;;;16.90;86.99;99762.56;4991967;28;20324;-64
2023/06/30 00:46:48;;;;;;;7.40;5.47;;;;;;;16.87;87.43;99763.00;4993198;28;20250;-65
2023/06/30 00:49:15;;;;;;;8.13;5.57;;;;;;;16.75;88.42;99751.81;4992007;28;20350;-63
2023/06/30 00:51:42;;;;;;;9.77;5.70;;;;;;;16.83;87.63;99751.63;4993320;28;20276;-65
2023/06/30 00:54:09;;;;;;;11.07;5.20;;;;;;;16.95;86.77;99751.91;4989554;28;21252;-64
2023/06/30 00:56:35;;;;;;;7.17;5.43;;;;;;;16.87;86.89;99743.84;4992979;28;20258;-66
2023/06/30 00:59:02;;;;;;;8.00;5.57;;;;;;;16.82;87.01;99747.19;4992607;28;20232;-65
2023/06/30 01:01:55;;;;;;;11.97;5.50;;;;;;;16.76;87.18;99737.09;4991253;28;20659;-65
2023/06/30 01:04:31;;;;;;;8.80;5.87;;;;;;;16.73;87.22;99737.50;4989200;28;20773;-64
2023/06/30 01:07:14;;;;;;;8.23;5.63;;;;;;;16.66;87.39;99734.72;5006542;28;20635;-65
2023/06/30 01:09:47;;;;;;;9.50;5.57;;;;;;;16.57;87.93;99734.06;4992993;28;20242;-66
2023/06/30 01:12:13;;;;;;;7.83;5.50;;;;;;;16.58;87.84;99729.44;4990639;28;20246;-65
2023/06/30 01:14:40;;;;;;;8.27;6.30;;;;;;;16.53;88.29;99737.41;4992816;28;20820;-65
2023/06/30 01:17:08;;;;;;;7.43;6.03;;;;;;;16.45;88.08;99736.53;4991956;28;20227;-65
2023/06/30 01:19:39;;;;;;;8.17;5.60;;;;;;;16.40;88.27;99733.59;4992585;28;20226;-65
2023/06/30 01:22:21;;;;;;;6.20;4.53;;;;;;;16.41;88.35;99739.88;4987704;28;20319;-67
2023/06/30 01:24:49;;;;;;;8.27;5.40;;;;;;;16.44;88.19;99742.22;4993587;28;20365;-65
2023/06/30 01:27:15;;;;;;;8.43;5.53;;;;;;;16.47;87.93;99733.59;4991079;28;20223;-66
2023/06/30 01:29:43;;;;;;;9.00;5.37;;;;;;;16.39;88.03;99729.16;4991029;28;20265;-64
2023/06/30 01:32:13;;;;;;;8.53;6.37;;;;;;;16.38;88.28;99729.38;4988855;28;20219;-64
2023/06/30 01:34:39;;;;;;;10.20;6.20;;;;;;;16.33;88.48;99719.06;4989982;28;20246;-64
2023/06/30 01:37:06;;;;;;;7.30;5.30;;;;;;;16.29;88.62;99718.63;4992525;28;22619;-64
2023/06/30 01:39:33;;;;;;;8.97;5.40;;;;;;;16.25;88.67;99720.06;4992423;28;20270;-65
2023/06/30 01:42:00;;;;;;;7.80;5.87;;;;;;;16.16;89.15;99713.94;4994809;28;20243;-65
2023/06/30 01:44:27;;;;;;;9.57;6.40;;;;;;;16.19;89.12;99722.78;4992857;28;20280;-65
2023/06/30 01:46:53;;;;;;;7.73;5.70;;;;;;;16.12;89.47;99715.38;4995580;28;20328;-66
2023/06/30 01:49:20;;;;;;;7.77;5.90;;;;;;;16.05;89.82;99724.56;4994275;28;20285;-64
2023/06/30 01:51:47;;;;;;;9.10;5.73;;;;;;;16.08;89.72;99716.81;4992303;28;20306;-64
2023/06/30 01:54:13;;;;;;;9.63;6.73;;;;;;;16.10;89.22;99717.47;4991542;28;20277;-63
2023/06/30 01:56:49;;;;;;;8.43;6.10;;;;;;;16.12;89.57;99718.13;4990527;28;20570;-63
2023/06/30 01:59:16;;;;;;;11.10;6.40;;;;;;;16.03;89.86;99715.72;4991546;28;20277;-64
2023/06/30 02:01:43;;;;;;;9.00;6.53;;;;;;;16.02;90.07;99728.56;4993573;28;20234;-65
2023/06/30 02:04:09;;;;;;;11.80;6.77;;;;;;;16.02;90.05;99723.09;4991932;28;20584;-65
2023/06/30 02:06:36;;;;;;;8.07;5.70;;;;;;;15.98;90.06;99717.19;4992835;28;20273;-65
2023/06/30 02:09:03;;;;;;;8.67;6.53;;;;;;;16.03;89.85;99715.72;4991714;28;20293;-64
2023/06/30 02:11:29;;;;;;;12.03;7.00;;;;;;;16.06;89.66;99718.91;4992090;28;20226;-65
2023/06/30 02:13:56;;;;;;;10.77;6.43;;;;;;;16.15;89.02;99714.13;4991001;28;20235;-64
2023/06/30 02:16:22;;;;;;;10.97;6.53;;;;;;;16.11;89.44;99719.16;4992883;28;23127;-64
2023/06/30 02:18:54;;;;;;;13.80;7.43;;;;;;;16.21;88.13;99718.78;4993168;28;20317;-64
2023/06/30 02:21:22;;;;;;;10.93;7.00;;;;;;;16.10;88.42;99711.16;4579015;28;20228;-65
2023/06/30 02:23:49;;;;;;;13.17;7.23;;;;;;;16.12;88.13;99709.94;4221845;28;21735;-64
2023/06/30 02:26:15;;;;;;;12.00;7.17;;;;;;;16.01;88.22;99707.75;4218149;28;21229;-64
2023/06/30 02:28:42;;;;;;;8.70;6.80;;;;;;;15.95;88.54;99712.13;4224373;28;20242;-63
2023/06/30 02:31:08;;;;;;;12.63;7.43;;;;;;;16.12;87.87;99706.34;4225290;28;20274;-63
2023/06/30 02:33:35;;;;;;;11.27;7.50;;;;;;;16.30;86.50;99703.06;4223325;28;20243;-66
2023/06/30 02:36:05;;;;;;;14.20;6.60;;;;;;;16.11;86.28;99707.38;4227246;28;20273;-64
2023/06/30 02:38:33;;;;;;;10.60;6.80;;;;;;;15.99;87.01;99701.63;4227651;28;21558;-64
2023/06/30 02:41:00;;;;;;;12.20;5.87;;;;;;;15.89;87.83;99704.72;4209786;28;20239;-62
2023/06/30 02:43:26;;;;;;;10.33;6.77;;;;;;;15.94;87.46;99710.44;4220520;28;20238;-63
2023/06/30 02:45:53;;;;;;;9.87;6.70;;;;;;;16.02;86.93;99706.72;4229620;28;21517;-64
2023/06/30 02:48:20;;;;;;;13.73;7.20;;;;;;;16.13;85.38;99695.22;4223416;28;20235;-63
2023/06/30 02:50:47;;;;;;;11.20;6.37;;;;;;;16.05;86.16;99703.56;4242542;28;20232;-66
2023/06/30 02:53:14;;;;;;;18.33;7.40;;;;;;;15.98;86.48;99699.94;4249044;28;20239;-65
2023/06/30 02:55:40;;;;;;;11.07;6.80;;;;;;;15.94;86.82;99693.22;4228081;28;20242;-65
2023/06/30 02:58:08;;;;;;;11.33;6.37;;;;;;;16.03;86.39;99697.47;4232633;28;25045;-64
2023/06/30 03:00:36;;;;;;;11.20;6.40;;;;;;;16.07;86.04;99697.91;4228991;28;20351;-63
2023/06/30 03:03:04;;;;;;;11.53;6.67;;;;;;;16.12;86.07;99698.16;4221796;28;20298;-65
2023/06/30 03:05:34;;;;;;;10.73;7.00;;;;;;;16.16;85.39;99704.91;4231080;28;20308;-61
2023/06/30 03:08:02;;;;;;;11.53;7.30;;;;;;;16.15;85.26;99697.75;4234027;28;20236;-63
2023/06/30 03:10:29;;;;;;;9.60;6.60;;;;;;;16.07;85.66;99692.47;4245926;28;20233;-65
2023/06/30 03:12:56;;;;;;;14.97;7.30;;;;;;;16.10;85.93;99698.34;4211036;28;21830;-64
2023/06/30 03:15:22;;;;;;;13.83;7.90;;;;;;;16.07;85.55;99695.19;4233338;28;20231;-65
2023/06/30 03:17:49;;;;;;;10.50;7.23;;;;;;;16.11;85.24;99699.19;4223247;28;21191;-64
2023/06/30 03:20:16;;;;;;;12.47;7.60;;;;;;;16.21;84.84;99705.13;4222705;28;20804;-65
2023/06/30 03:22:43;;;;;;;15.07;7.90;;;;;;;16.13;84.59;99703.41;4239943;28;20516;-64
2023/06/30 03:25:10;;;;;;;11.57;7.23;;;;;;;16.04;85.44;99701.91;4236790;28;20233;-65
2023/06/30 03:27:37;;;;;;;12.20;7.10;;;;;;;16.12;84.91;99704.47;4222357;28;21030;-64
2023/06/30 03:30:04;;;;;;;12.63;8.20;;;;;;;16.14;84.77;99705.09;4217201;28;20237;-65
2023/06/30 03:32:32;;;;;;;15.00;7.97;;;;;;;16.17;84.74;99701.09;4253517;28;20228;-65
2023/06/30 03:35:02;;;;;;;15.23;8.20;;;;;;;16.15;84.83;99703.22;4236028;28;20281;-65
2023/06/30 03:37:30;;;;;;;19.80;7.97;;;;;;;16.19;84.57;99706.38;4198157;28;20335;-63
2023/06/30 03:39:57;;;;;;;15.90;7.90;;;;;;;16.17;nan;99701.09;4239872;28;20403;-66
2023/06/30 03:42:24;;;;;;;17.00;8.23;;;;;;;16.16;84.33;99696.72;4241464;28;20425;-66
2023/06/30 03:44:50;;;;;;;16.43;8.50;;;;;;;16.11;84.33;99694.59;4222283;28;22570;-64
2023/06/30 03:47:17;;;;;;;18.90;8.63;;;;;;;16.19;84.07;99698.19;4220951;28;20692;-65
2023/06/30 03:49:44;;;;;;;14.57;8.77;;;;;;;16.03;84.63;99691.16;4229298;28;20234;-65
2023/06/30 03:52:10;;;;;;;15.43;9.07;;;;;;;16.00;84.71;99695.13;4228683;28;21495;-67
2023/06/30 03:54:37;;;;;;;14.73;8.87;;;;;;;16.10;83.83;99694.75;4223025;28;20596;-66
2023/06/30 03:57:04;;;;;;;14.17;8.70;;;;;;;16.06;83.48;99698.97;4218204;28;20231;-65
2023/06/30 03:59:31;;;;;;;16.17;9.33;;;;;;;16.04;83.19;99695.59;4226359;28;20232;-64
2023/06/30 04:01:57;;;;;;;15.10;8.53;;;;;;;16.15;82.83;99704.03;4228580;28;20231;-65
2023/06/30 04:04:24;;;;;;;13.83;8.80;;;;;;;16.22;82.24;99700.50;4214855;28;22123;-66
2023/06/30 04:06:51;;;;;;;17.53;9.30;;;;;;;16.29;82.18;99695.91;4220773;28;20232;-65
2023/06/30 04:09:18;;;;;;;16.93;9.57;;;;;;;16.25;81.74;99698.22;4226265;28;20228;-66
2023/06/30 04:11:44;;;;;;;14.93;8.83;;;;;;;16.43;81.35;99696.81;4214798;28;20242;-64
2023/06/30 04:14:11;;;;;;;15.87;9.43;;;;;;;16.20;82.43;99692.53;4218619;28;20242;-64
2023/06/30 04:16:38;;;;;;;14.23;9.03;;;;;;;16.21;82.40;99705.13;4225467;28;20307;-64
2023/06/30 04:19:04;;;;;;;18.73;9.90;;;;;;;16.17;83.02;99703.84;4218013;28;21987;-66
2023/06/30 04:21:31;;;;;;;13.43;8.70;;;;;;;16.19;83.15;99701.75;4220496;28;20410;-65
2023/06/30 04:23:58;;;;;;;17.33;9.50;;;;;;;16.31;83.45;99697.38;4222508;28;21615;-64
2023/06/30 04:26:24;;;;;;;16.30;9.70;;;;;;;16.53;81.81;99702.75;4216130;28;20243;-67
2023/06/30 04:28:51;;;;;;;19.70;10.40;;;;;;;16.52;82.44;99700.19;4230539;28;20325;-65
2023/06/30 04:31:17;;;;;;;18.07;9.70;;;;;;;16.61;81.92;99702.56;4221788;28;20258;-62
2023/06/30 04:33:44;;;;;;;14.63;9.73;;;;;;;16.61;81.87;99709.91;4206376;28;20235;-64
2023/06/30 04:36:11;;;;;;;20.73;10.40;;;;;;;16.71;81.53;99699.44;4216461;28;20884;-67
2023/06/30 04:38:37;;;;;;;15.60;8.70;;;;;;;16.96;80.96;99704.34;4222883;28;23078;-65
2023/06/30 04:41:04;;;;;;;19.47;10.43;;;;;;;17.01;79.91;99701.84;4222255;28;20231;-62
2023/06/30 04:43:31;;;;;;;14.53;9.60;;;;;;;17.00;79.46;99711.09;4211518;28;21640;-64
2023/06/30 04:45:57;;;;;;;16.27;10.37;;;;;;;17.09;79.02;99704.41;4222125;28;20231;-66
2023/06/30 04:48:24;;;;;;;15.40;9.20;;;;;;;17.20;78.45;99692.00;4222824;28;22822;-64
2023/06/30 04:50:50;;;;;;;15.07;9.50;;;;;;;17.16;77.93;99695.34;4224055;28;20278;-63
2023/06/30 04:53:17;;;;;;;16.40;8.87;;;;;;;17.35;77.12;99689.03;4206834;28;21238;-66
2023/06/30 04:55:44;;;;;;;15.57;10.00;;;;;;;17.22;78.11;99692.59;4226467;28;20234;-66
2023/06/30 04:58:11;;;;;;;16.83;9.50;;;;;;;17.25;78.30;99694.94;4223438;28;20446;-67
2023/06/30 05:00:39;;;;;;;14.53;8.97;;;;;;;17.55;77.31;99690.94;4214804;28;20888;-65
2023/06/30 05:03:06;;;;;;;17.77;8.53;;;;;;;17.58;76.71;99688.63;4231790;28;20231;-64
2023/06/30 05:05:33;;;;;;;14.43;8.97;;;;;;;17.69;77.00;99694.47;4226765;28;21662;-65
2023/06/30 05:08:00;;;;;;;14.80;8.83;;;;;;;17.87;75.88;99691.94;4233476;28;21738;-66
2023/06/30 05:10:26;;;;;;;16.67;7.87;;;;;;;18.12;74.54;99690.44;4229852;28;20507;-66
2023/06/30 05:12:53;;;;;;;16.33;8.13;;;;;;;18.55;73.04;99691.72;4229944;28;20343;-65
2023/06/30 05:15:20;;;;;;;14.77;8.60;;;;;;;18.60;72.40;99695.50;4237672;28;22786;-66
2023/06/30 05:17:46;;;;;;;13.17;8.30;;;;;;;18.55;73.17;99691.72;4227130;28;20397;-63
2023/06/30 05:20:13;;;;;;;15.60;7.53;;;;;;;18.47;72.51;99693.66;4232917;28;20277;-65
2023/06/30 05:22:40;;;;;;;17.47;8.50;;;;;;;18.75;72.06;99686.97;4223516;28;21370;-64
2023/06/30 05:25:08;;;;;;;14.70;7.10;;;;;;;19.35;70.85;99693.16;4218613;28;20236;-64
2023/06/30 05:27:34;;;;;;;14.93;7.97;;;;;;;19.66;70.18;99697.72;4227351;28;20276;-65
2023/06/30 05:30:01;;;;;;;14.70;7.50;;;;;;;20.13;68.48;99699.19;4218673;28;22261;-66
2023/06/30 05:32:28;;;;;;;9.67;6.40;;;;;;;20.66;67.35;99709.53;4220868;28;20885;-64
2023/06/30 05:34:55;;;;;;;11.97;6.53;;;;;;;20.95;64.68;99711.72;4231659;28;20227;-66
2023/06/30 05:37:22;;;;;;;14.37;6.80;;;;;;;21.31;62.80;99704.41;4250962;28;20912;-64
2023/06/30 05:39:48;;;;;;;11.50;6.23;;;;;;;21.45;61.72;99697.59;4231116;28;20688;-64
2023/06/30 05:42:15;;;;;;;9.23;6.50;;;;;;;21.30;62.35;99702.72;4214875;28;21427;-65
2023/06/30 05:44:42;;;;;;;10.13;5.60;;;;;;;22.70;59.05;99698.44;4233786;28;20718;-65
2023/06/30 05:47:08;;;;;;;13.97;6.30;;;;;;;24.01;55.16;99696.56;4236124;28;23705;-67
2023/06/30 05:49:35;;;;;;;9.63;5.47;;;;;;;24.91;52.22;99698.22;4214534;28;21077;-65
2023/06/30 05:52:02;;;;;;;10.27;5.80;;;;;;;25.44;50.06;99704.03;4209732;28;21639;-65
2023/06/30 05:54:28;;;;;;;8.00;4.75;;;;;;;26.02;49.33;99694.16;4240829;28;21847;-66
2023/06/30 05:56:55;;;;;;;11.27;5.87;;;;;;;25.46;50.26;99699.03;4220735;28;21293;-67
2023/06/30 05:59:22;;;;;;;10.80;5.23;;;;;;;25.63;50.56;99696.13;4225368;28;20283;-75
2023/06/30 06:01:48;;;;;;;12.67;5.93;;;;;;;26.47;48.76;99700.22;4234210;28;20232;-69
2023/06/30 06:04:18;;;;;;;9.27;5.00;;;;;;;27.41;46.77;99707.69;4232544;28;20631;-70
2023/06/30 06:06:45;;;;;;;11.02;5.45;;;;;;;27.83;45.03;99692.66;4234680;28;21087;-68
2023/06/30 06:09:11;;;;;;;10.40;5.15;;;;;;;28.34;42.45;99693.63;4223293;28;20241;-72
2023/06/30 06:11:39;;;;;;;12.30;5.63;;;;;;;27.86;44.12;99694.88;4235775;28;20736;-71
2023/06/30 06:14:06;;;;;;;11.57;5.05;;;;;;;28.67;41.62;99694.88;4218248;28;20227;-70
2023/06/30 06:16:33;;;;;;;10.38;4.80;;;;;;;29.53;39.52;99702.97;4238584;28;20236;-70
2023/06/30 06:19:00;;;;;;;10.02;4.80;;;;;;;29.63;39.34;99698.44;4276359;28;20243;-71
2023/06/30 06:21:27;;;;;;;11.00;4.95;;;;;;;29.81;38.38;99700.50;4283103;28;20381;-72
2023/06/30 06:23:55;;;;;;;10.70;4.55;;;;;;;30.82;36.42;99701.56;4301892;28;20321;-70
2023/06/30 06:26:22;;;;;;;9.75;5.15;;;;;;;29.30;39.40;99700.94;4249147;28;20242;-73
2023/06/30 06:28:48;;;;;;;8.98;5.00;;;;;;;28.38;41.89;99705.88;4264079;28;21644;-70
2023/06/30 06:31:15;;;;;;;10.15;4.50;;;;;;;29.93;37.72;99696.50;4226113;28;20235;-69
2023/06/30 06:33:42;;;;;;;10.85;4.32;;;;;;;31.68;34.53;99693.28;4217243;28;21169;-69
2023/06/30 06:36:10;;;;;;;16.98;4.63;;;;;;;29.22;39.96;99696.78;4221238;28;21688;-69
2023/06/30 06:38:37;;;;;;;9.73;4.43;;;;;;;30.38;37.07;99688.72;4216686;28;20236;-71
2023/06/30 06:41:04;;;;;;;11.25;4.50;;;;;;;30.49;36.48;99697.78;4257103;28;20305;-70
2023/06/30 06:43:31;;;;;;;7.10;4.20;;;;;;;30.17;38.00;99702.09;4236627;28;20258;-69
2023/06/30 06:45:58;;;;;;;8.38;4.10;;;;;;;28.29;39.93;99700.06;4214088;28;23335;-67
2023/06/30 06:48:26;;;;;;;6.43;3.72;;;;;;;28.50;41.35;99703.59;4215831;28;20233;-71
2023/06/30 06:50:55;;;;;;;6.32;4.05;;;;;;;28.86;39.91;99700.66;4252773;28;20231;-69
2023/06/30 06:53:33;;;;;;;12.38;4.00;;;;;;;29.11;39.70;99703.56;4236581;28;20228;-73
2023/06/30 06:56:00;;;;;;;7.72;3.67;;;;;;;30.75;36.97;99697.50;4235960;28;20651;-68
2023/06/30 06:58:29;;;;;;;6.90;3.80;;;;;;;31.55;35.55;99700.47;4264180;28;20244;-68
2023/06/30 07:00:56;;;;;;;11.07;3.75;;;;;;;29.23;39.64;99704.03;4205695;28;20233;-68
2023/06/30 07:03:23;;;;;;;8.85;3.30;;;;;;;30.12;38.02;99694.63;4239280;28;20631;-68
2023/06/30 07:05:50;;;;;;;8.13;3.72;;;;;;;28.73;39.90;99699.34;4244199;28;21785;-70
2023/06/30 07:08:18;;;;;;;7.55;3.60;;;;;;;27.74;41.67;99700.75;4249913;28;20236;-69
2023/06/30 07:10:46;;;;;;;10.90;3.72;;;;;;;27.93;42.58;99687.06;4216149;28;21368;-69
2023/06/30 07:13:16;;;;;;;10.98;3.97;;;;;;;29.11;39.15;99690.47;4242561;28;23048;-45
2023/06/30 07:15:43;;;;;;;7.10;3.47;;;;;;;29.70;38.42;99698.91;4249585;28;20255;-69
2023/06/30 07:18:10;;;;;;;10.32;3.33;;;;;;;28.93;40.20;99695.59;4233801;28;20641;-68
2023/06/30 07:20:37;;;;;;;7.55;3.10;;;;;;;28.97;39.38;99698.63;4218872;28;20232;-65
2023/06/30 07:23:04;;;;;;;8.95;3.47;;;;;;;28.45;41.13;99703.63;4234187;28;21815;-70
2023/06/30 07:25:30;;;;;;;12.32;3.70;;;;;;;27.79;41.53;99694.34;4234250;28;20392;-68
2023/06/30 07:27:58;;;;;;;7.55;3.20;;;;;;;26.75;44.56;99696.16;4240351;28;20236;-68
2023/06/30 07:30:26;;;;;;;7.30;3.77;;;;;;;26.85;44.90;99684.28;4268201;28;20808;-67
2023/06/30 07:32:54;;;;;;;9.35;3.63;;;;;;;25.84;46.78;99687.94;4251045;28;20233;-69
2023/06/30 07:35:21;;;;;;;6.47;3.17;;;;;;;25.68;46.29;99691.72;4244176;28;20532;-71
2023/06/30 07:37:49;;;;;;;8.30;3.23;;;;;;;25.45;46.55;99697.34;4224646;28;20847;-68
2023/06/30 07:40:16;;;;;;;9.75;3.22;;;;;;;25.51;46.76;99700.19;4231058;28;20239;-68
2023/06/30 07:42:45;;;;;;;7.00;3.35;;;;;;;25.81;48.26;99687.66;4268654;28;25429;-70
2023/06/30 07:45:14;;;;;;;6.30;3.37;;;;;;;26.00;45.89;99688.88;4237140;28;23016;-69
2023/06/30 07:47:41;;;;;;;8.43;3.22;;;;;;;25.51;47.32;99684.38;4228370;28;20316;-69
2023/06/30 07:50:12;;;;;;;7.95;2.95;;;;;;;26.10;45.07;99674.25;4219056;28;20550;-68
2023/06/30 07:52:48;;;;;;;10.50;3.10;;;;;;;26.12;43.83;99683.13;4262484;28;20256;-73
2023/06/30 07:55:16;;;;;;;6.77;2.60;;;;;;;26.04;43.88;99669.75;4254434;28;20653;-71
2023/06/30 07:57:44;;;;;;;10.13;3.50;;;;;;;25.69;45.87;99679.53;4252819;28;20247;-68
2023/06/30 08:00:15;;;;;;;8.03;3.60;;;;;;;25.80;45.64;99672.94;4270871;28;21732;-68
2023/06/30 08:02:42;;;;;;;6.90;2.70;;;;;;;25.66;45.09;99677.28;4228185;28;22210;-66
2023/06/30 08:05:09;;;;;;;8.40;3.03;;;;;;;26.33;44.62;99674.91;4258039;28;20236;-70
2023/06/30 08:07:36;;;;;;;8.67;3.03;;;;;;;26.14;44.19;99675.38;4236997;28;20305;-68
2023/06/30 08:10:16;;;;;;;5.63;2.88;;;;;;;26.41;44.14;99668.84;4288804;28;20320;-68
2023/06/30 08:12:43;;;;;;;5.60;2.80;;;;;;;26.90;42.68;99670.38;4251366;28;20242;-73
2023/06/30 08:15:10;;;;;;;7.97;2.70;;;;;;;26.78;42.38;99665.09;4233355;28;20238;-68
2023/06/30 08:17:37;;;;;;;6.50;2.70;;;;;;;27.35;41.74;99657.63;4258011;28;22141;-69
2023/06/30 08:20:23;;;;;;;6.68;2.95;;;;;;;27.27;41.31;99651.81;4249464;28;20237;-68
2023/06/30 08:22:51;;;;;;;9.30;3.05;;;;;;;27.38;40.91;99659.00;4241754;28;20225;-70
2023/06/30 08:25:24;;;;;;;7.15;2.42;;;;;;;27.37;41.69;99657.38;4241547;28;21973;-71
2023/06/30 08:27:51;;;;;;;6.05;2.65;;;;;;;26.43;41.84;99652.75;4254886;28;20240;-68
2023/06/30 08:30:18;;;;;;;5.67;2.70;;;;;;;26.47;41.52;99653.91;4250884;28;21719;-71
2023/06/30 08:32:50;;;;;;;5.83;2.33;;;;;;;26.42;42.23;99663.03;4266085;28;20881;-68
2023/06/30 08:35:16;;;;;;;7.63;2.83;;;;;;;26.56;41.18;99648.63;4228457;28;20241;-68
2023/06/30 08:37:44;;;;;;;4.90;2.40;;;;;;;26.70;40.92;99643.41;4236220;28;21455;-69
2023/06/30 08:40:11;;;;;;;4.17;2.50;;;;;;;27.10;41.49;99647.34;4253053;28;20246;-69
2023/06/30 08:42:40;;;;;;;4.93;2.50;;;;;;;27.50;41.26;99653.19;4230461;28;21740;-74
2023/06/30 08:45:09;;;;;;;7.23;2.87;;;;;;;28.26;38.64;99658.91;4238102;28;21160;-67
2023/06/30 08:47:37;;;;;;;8.33;3.00;;;;;;;28.22;38.13;99650.28;4223403;28;20239;-71
2023/06/30 08:50:06;;;;;;;5.45;2.78;;;;;;;28.30;38.18;99651.63;4227302;28;20279;-69
2023/06/30 08:52:35;;;;;;;6.07;2.30;;;;;;;26.91;40.92;99651.78;4211016;28;20234;-69
2023/06/30 08:55:02;;;;;;;7.70;2.37;;;;;;;26.05;40.74;99640.91;4223076;28;20242;-68
2023/06/30 08:57:30;;;;;;;4.13;2.10;;;;;;;25.60;41.80;99641.22;4234537;28;21147;-69
2023/06/30 08:59:56;;;;;;;5.63;2.00;;;;;;;25.90;40.93;99644.47;4229010;28;20244;-67
2023/06/30 09:02:23;;;;;;;8.17;2.03;;;;;;;25.83;40.28;99641.91;4223618;28;20290;-66
2023/06/30 09:04:50;;;;;;;6.03;2.10;;;;;;;26.65;39.96;99626.72;4239719;28;22360;-66
2023/06/30 09:07:26;;;;;;;3.93;2.20;;;;;;;26.24;39.38;99631.06;4225319;28;21040;-77
2023/06/30 09:10:03;;;;;;;6.30;2.37;;;;;;;26.66;39.02;99623.66;4210195;28;20233;-75
2023/06/30 09:12:30;;;;;;;3.30;1.57;;;;;;;27.54;36.77;99623.75;4213897;28;21101;-76
2023/06/30 09:14:59;;;;;;;6.32;2.17;;;;;;;27.01;37.78;99635.13;4257500;28;20307;-76
2023/06/30 09:17:26;;;;;;;2.80;2.00;;;;;;;26.21;40.17;99625.22;4212115;28;20541;-75
2023/06/30 09:19:53;;;;;;;9.57;2.10;;;;;;;26.21;40.11;99633.53;4240343;28;22348;-74
2023/06/30 09:22:20;;;;;;;5.23;2.13;;;;;;;26.13;39.48;99620.19;4220930;28;20281;-77
2023/06/30 09:25:26;;;;;;;5.17;2.47;;;;;;;25.43;41.49;99632.22;4230211;28;20247;-72
2023/06/30 09:27:56;;;;;;;4.60;2.03;;;;;;;25.28;40.59;99613.53;4235745;28;20240;-74
2023/06/30 09:30:36;;;;;;;5.33;1.70;;;;;;;26.02;39.11;99619.28;4229803;28;20410;-76
2023/06/30 09:33:03;;;;;;;7.70;2.70;;;;;;;27.05;38.18;99619.59;4222570;28;20232;-73
2023/06/30 09:35:39;;;;;;;5.77;2.53;;;;;;;26.64;39.95;99619.50;4228539;28;20225;-74
2023/06/30 09:38:10;;;;;;;4.50;2.03;;;;;;;27.26;37.72;99622.34;4247741;28;20279;-72
2023/06/30 09:40:37;;;;;;;7.53;1.90;;;;;;;27.32;36.99;99629.56;4243005;28;20316;-78
2023/06/30 09:43:05;;;;;;;4.07;2.05;;;;;;;27.28;37.50;99622.91;4225213;28;20242;-73
2023/06/30 09:45:31;;;;;;;5.23;2.17;;;;;;;26.25;39.42;99626.34;4223820;28;22288;-76
2023/06/30 09:47:58;;;;;;;4.83;2.20;;;;;;;26.28;39.29;99624.94;4234051;28;20426;-74
2023/06/30 09:50:27;;;;;;;8.53;2.17;;;;;;;25.91;40.81;99623.91;4219480;28;20232;-73
2023/06/30 09:52:54;;;;;;;3.73;2.10;;;;;;;25.34;41.94;99628.28;4225527;28;23097;-73
2023/06/30 09:55:20;;;;;;;3.97;2.13;;;;;;;25.16;42.38;99625.63;4239895;28;21146;-74
2023/06/30 09:57:48;;;;;;;6.13;2.20;;;;;;;25.46;41.80;99623.41;4228695;28;20316;-78
2023/06/30 10:00:16;;;;;;;5.80;2.00;;;;;;;26.24;39.61;99619.97;4237239;28;21560;-73
2023/06/30 10:03:04;;;;;;;8.23;2.20;;;;;;;27.01;37.36;99624.88;4242536;28;20251;-76
2023/06/30 10:05:31;;;;;;;5.28;2.10;;;;;;;27.44;36.50;99610.72;4223177;28;20243;-74
2023/06/30 10:08:00;;;;;;;6.68;2.33;;;;;;;27.49;35.88;99604.31;4262363;28;20234;-74
2023/06/30 10:10:27;;;;;;;8.10;2.13;;;;;;;27.48;37.10;99603.47;4258419;28;20422;-75
2023/06/30 10:12:56;;;;;;;4.43;2.00;;;;;;;27.43;36.44;99602.63;4214152;28;21752;-75
2023/06/30 10:15:23;;;;;;;3.53;2.00;;;;;;;26.69;38.04;99597.31;4226673;28;20246;-75
2023/06/30 10:17:50;;;;;;;5.63;1.90;;;;;;;26.56;39.07;99601.44;4224210;28;20228;-74
2023/06/30 10:20:18;;;;;;;3.67;1.80;;;;;;;26.63;38.07;99593.69;4232927;28;20243;-74
2023/06/30 10:22:49;;;;;;;3.22;1.77;;;;;;;26.94;39.04;99599.31;4275814;28;20238;-71
2023/06/30 10:25:18;;;;;;;7.50;2.05;;;;;;;27.61;35.74;99596.50;4244295;28;25805;-75
2023/06/30 10:27:46;;;;;;;5.60;1.87;;;;;;;27.58;34.99;99588.69;4218887;28;25640;-76
2023/06/30 10:30:13;;;;;;;6.82;2.13;;;;;;;26.87;36.98;99595.97;4231423;28;20243;-75
2023/06/30 10:32:40;;;;;;;3.28;1.95;;;;;;;26.68;37.19;99598.41;4239703;28;20232;-78
2023/06/30 10:35:09;;;;;;;4.82;2.10;;;;;;;26.93;36.86;99599.59;4236942;28;21139;-77
2023/06/30 10:37:36;;;;;;;5.65;2.00;;;;;;;27.55;36.22;99583.72;4224936;28;20231;-76
2023/06/30 10:40:25;;;;;;;8.05;2.03;;;;;;;27.76;35.88;99589.22;4235198;28;20228;-71
2023/06/30 10:42:54;;;;;;;5.07;1.92;;;;;;;27.18;36.99;99582.91;4232815;28;20332;-69
2023/06/30 10:45:27;;;;;;;4.35;1.90;;;;;;;27.08;37.73;99588.44;4236275;28;20337;-71
2023/06/30 10:47:54;;;;;;;3.72;2.00;;;;;;;27.02;38.72;99584.88;4265547;28;20297;-66
2023/06/30 10:50:21;;;;;;;5.60;1.90;;;;;;;27.62;37.51;99575.06;4261417;28;20422;-69
2023/06/30 10:52:53;;;;;;;5.45;1.70;;;;;;;27.63;35.94;99580.38;4226910;28;20246;-68
2023/06/30 10:55:21;;;;;;;3.60;1.77;;;;;;;27.54;36.86;99573.72;4232379;28;21450;-71
2023/06/30 10:57:52;;;;;;;3.67;1.80;;;;;;;27.25;36.93;99573.44;4214487;28;20250;-67
2023/06/30 11:00:21;;;;;;;6.10;2.05;;;;;;;27.52;36.46;99573.16;4245490;28;20746;-71
2023/06/30 11:02:49;;;;;;;4.72;1.80;;;;;;;27.72;34.77;99565.88;4230509;28;20236;-68
2023/06/30 11:05:33;;;;;;;3.53;1.90;;;;;;;27.74;37.03;99569.19;4232724;28;21912;-68
2023/06/30 11:08:03;;;;;;;3.53;1.80;;;;;;;27.39;37.33;99566.19;4223048;28;20317;-68
2023/06/30 11:10:33;;;;;;;7.47;2.13;;;;;;;27.75;37.29;99570.84;4235426;28;25550;-68
2023/06/30 11:13:01;;;;;;;3.10;1.90;;;;;;;27.78;36.73;99561.97;4226454;28;23540;-76
2023/06/30 11:15:37;;;;;;;3.47;1.98;;;;;;;27.79;35.78;99555.28;4263364;28;20453;-73
2023/06/30 11:18:11;;;;;;;4.97;2.15;;;;;;;27.25;36.78;99559.56;4220236;28;21668;-66
2023/06/30 11:20:39;;;;;;;5.18;2.10;;;;;;;27.20;37.35;99549.28;4210429;28;20298;-72
2023/06/30 11:23:16;;;;;;;3.53;1.90;;;;;;;27.48;34.70;99539.53;4216574;28;20236;-73
2023/06/30 11:25:43;;;;;;;3.60;1.80;;;;;;;27.65;34.29;99549.50;4242118;28;21255;-69
2023/06/30 11:28:12;;;;;;;5.38;1.90;;;;;;;27.75;35.82;99543.91;4265124;28;23405;-71
2023/06/30 11:30:38;;;;;;;4.40;2.03;;;;;;;28.19;34.27;99544.28;4248853;28;20597;-66
2023/06/30 11:33:06;;;;;;;7.97;2.20;;;;;;;28.35;33.22;99537.50;4266149;28;21455;-70